Time;durP1;ratioP1;P1;durP2;ratioP2;P2;SDS_P1;SDS_P2;PMS_P1;PMS_P2;Temp;Humidity;BMP_temperature;BMP_pressure;BME280_temperature;BME280_humidity;BME280_pressure;Samples;Min_cycle;Max_cycle;Signal;HPM_P1;HPM_P2
2023/04/07 00:00:25;;;;;;;19.90;9.38;;;10.80;58.30;;;;;;6247432;23;20480;-82
2023/04/07 00:02:51;;;;;;;13.50;8.80;;;10.80;58.40;;;;;;6247489;23;20056;-81
2023/04/07 00:05:17;;;;;;;17.98;9.80;;;10.80;58.50;;;;;;6247344;23;20004;-81
2023/04/07 00:07:42;;;;;;;18.65;10.30;;;10.80;58.80;;;;;;6247346;23;19996;-81
2023/04/07 00:10:08;;;;;;;17.60;9.93;;;10.80;58.60;;;;;;6248048;23;20074;-81
2023/04/07 00:12:35;;;;;;;17.55;10.35;;;10.80;58.90;;;;;;6247514;23;20000;-81
2023/04/07 00:15:01;;;;;;;20.80;10.95;;;10.80;58.90;;;;;;6247467;23;20008;-81
2023/04/07 00:17:26;;;;;;;17.75;10.77;;;10.80;58.90;;;;;;6251042;23;20091;-80
2023/04/07 00:19:52;;;;;;;19.95;11.07;;;10.70;58.90;;;;;;6251118;23;20011;-81
2023/04/07 00:22:18;;;;;;;23.00;11.68;;;10.70;59.20;;;;;;6253072;23;20034;-81
2023/04/07 00:24:43;;;;;;;21.88;11.63;;;10.70;59.60;;;;;;6247093;23;20039;-81
2023/04/07 00:27:09;;;;;;;18.50;10.88;;;10.60;59.40;;;;;;6247277;23;20000;-78
2023/04/07 00:29:35;;;;;;;23.48;11.68;;;10.50;59.50;;;;;;6247339;23;20000;-81
2023/04/07 00:32:00;;;;;;;21.75;11.93;;;10.50;59.50;;;;;;6246877;23;20304;-80
2023/04/07 00:34:26;;;;;;;22.83;11.30;;;10.50;59.70;;;;;;6246940;23;20078;-80
2023/04/07 00:36:52;;;;;;;19.90;12.50;;;10.50;59.90;;;;;;6247027;23;20363;-81
2023/04/07 00:39:18;;;;;;;20.77;11.48;;;10.50;60.10;;;;;;6248249;23;20000;-80
2023/04/07 00:41:45;;;;;;;20.42;11.60;;;10.40;60.20;;;;;;6220520;23;20012;-80
2023/04/07 00:44:11;;;;;;;24.13;12.25;;;10.30;60.50;;;;;;6247839;23;20421;-81
2023/04/07 00:46:37;;;;;;;24.13;11.90;;;10.30;60.50;;;;;;6247264;23;20054;-82
2023/04/07 00:49:03;;;;;;;18.60;11.68;;;10.20;60.50;;;;;;6247063;23;20446;-81
2023/04/07 00:51:30;;;;;;;21.33;12.25;;;10.20;61.00;;;;;;6247169;23;20004;-82
2023/04/07 00:53:56;;;;;;;21.05;12.48;;;10.10;61.20;;;;;;6248787;23;19996;-81
2023/04/07 00:56:21;;;;;;;20.85;12.23;;;10.10;61.00;;;;;;6237461;23;20039;-81
2023/04/07 00:58:47;;;;;;;19.08;11.32;;;10.10;60.90;;;;;;6251210;23;20000;-80
2023/04/07 01:01:21;;;;;;;20.25;11.88;;;10.00;60.90;;;;;;6247219;23;20346;-81
2023/04/07 01:03:47;;;;;;;17.38;10.73;;;10.00;61.20;;;;;;6246468;23;20007;-80
2023/04/07 01:06:16;;;;;;;18.10;10.55;;;9.90;61.90;;;;;;6219754;23;20409;-81
2023/04/07 01:08:56;;;;;;;19.23;11.02;;;9.90;62.10;;;;;;6246291;23;19996;-81
2023/04/07 01:11:31;;;;;;;18.30;11.27;;;9.80;62.80;;;;;;6246651;23;20084;-80
2023/04/07 01:13:59;;;;;;;19.48;11.60;;;9.80;61.80;;;;;;6246529;23;20087;-80
2023/04/07 01:16:31;;;;;;;17.95;10.90;;;9.80;61.90;;;;;;6246220;23;20016;-81
2023/04/07 01:19:07;;;;;;;23.17;11.13;;;9.70;61.70;;;;;;6246524;23;20000;-82
2023/04/07 01:21:36;;;;;;;19.42;11.18;;;9.70;61.60;;;;;;6247626;23;20031;-81
2023/04/07 01:24:39;;;;;;;20.25;11.45;;;9.60;61.30;;;;;;6247483;23;19996;-81
2023/04/07 01:27:16;;;;;;;19.73;11.43;;;9.70;61.90;;;;;;6238919;23;20067;-81
2023/04/07 01:29:47;;;;;;;17.35;11.00;;;9.70;61.60;;;;;;6250327;23;20000;-81
2023/04/07 01:32:14;;;;;;;18.08;10.93;;;9.70;61.00;;;;;;6246745;23;20434;-81
2023/04/07 01:34:41;;;;;;;17.55;10.93;;;9.70;61.20;;;;;;6246560;23;20012;-80
2023/04/07 01:37:07;;;;;;;16.73;11.13;;;9.70;61.20;;;;;;6247015;23;20330;-80
2023/04/07 01:39:34;;;;;;;18.05;11.43;;;9.60;61.10;;;;;;6252409;23;20051;-80
2023/04/07 01:42:02;;;;;;;18.05;11.43;;;9.50;61.30;;;;;;6262866;23;20000;-80
2023/04/07 01:44:29;;;;;;;17.50;10.82;;;9.40;61.50;;;;;;6252517;23;20442;-81
2023/04/07 01:46:55;;;;;;;21.23;10.40;;;9.40;61.90;;;;;;6247342;23;20373;-80
2023/04/07 01:49:22;;;;;;;18.35;10.40;;;9.40;61.40;;;;;;6246751;23;20074;-82
2023/04/07 01:51:49;;;;;;;18.58;10.40;;;9.40;61.30;;;;;;6246316;23;20303;-81
2023/04/07 01:54:16;;;;;;;17.65;10.63;;;9.40;61.40;;;;;;6219279;23;20023;-80
2023/04/07 01:56:43;;;;;;;16.30;10.25;;;9.30;61.80;;;;;;6245810;23;20019;-82
2023/04/07 01:59:09;;;;;;;13.95;10.07;;;9.30;61.30;;;;;;6246455;23;20000;-81
2023/04/07 02:01:35;;;;;;;19.33;10.50;;;9.30;61.50;;;;;;6246291;23;20050;-82
2023/04/07 02:04:06;;;;;;;15.60;10.60;;;9.30;61.60;;;;;;6246230;23;20004;-80
2023/04/07 02:06:37;;;;;;;17.85;9.73;;;9.20;61.70;;;;;;6246918;23;20009;-80
2023/04/07 02:09:06;;;;;;;14.75;10.02;;;9.20;61.60;;;;;;6248111;23;20067;-82
2023/04/07 02:11:34;;;;;;;18.23;10.70;;;9.20;61.80;;;;;;6248416;23;20383;-81
2023/04/07 02:14:02;;;;;;;16.58;10.30;;;9.30;61.80;;;;;;6247711;23;20075;-81
2023/04/07 02:16:30;;;;;;;15.32;10.15;;;9.40;61.50;;;;;;6216391;23;20020;-80
2023/04/07 02:18:58;;;;;;;16.50;11.13;;;9.30;61.30;;;;;;6217459;23;20032;-81
2023/04/07 02:21:26;;;;;;;15.30;10.52;;;9.40;61.30;;;;;;6218535;23;20060;-81
2023/04/07 02:23:52;;;;;;;17.80;10.98;;;9.40;61.40;;;;;;6219548;23;20003;-80
2023/04/07 02:26:17;;;;;;;17.77;10.90;;;9.40;61.30;;;;;;6216550;23;20335;-81
2023/04/07 02:28:43;;;;;;;18.08;10.55;;;9.30;61.50;;;;;;6215384;23;20043;-82
2023/04/07 02:31:09;;;;;;;16.42;10.57;;;9.30;61.60;;;;;;6216235;23;20005;-83
2023/04/07 02:33:34;;;;;;;17.10;10.52;;;9.30;61.90;;;;;;6215657;23;20453;-80
2023/04/07 02:36:00;;;;;;;14.80;10.88;;;9.30;62.00;;;;;;6215505;23;20009;-80
2023/04/07 02:38:26;;;;;;;15.48;9.95;;;9.30;61.80;;;;;;6214192;23;19996;-81
2023/04/07 02:40:51;;;;;;;15.13;9.68;;;9.30;61.90;;;;;;6216030;23;20011;-82
2023/04/07 02:43:20;;;;;;;14.95;9.48;;;9.30;61.60;;;;;;6223633;23;19996;-81
2023/04/07 02:45:45;;;;;;;19.58;9.95;;;9.20;61.70;;;;;;6220343;23;20000;-80
2023/04/07 02:48:11;;;;;;;17.55;10.00;;;9.30;61.70;;;;;;6232133;23;20000;-76
2023/04/07 02:50:37;;;;;;;14.95;10.15;;;9.20;61.60;;;;;;6215375;23;20324;-82
2023/04/07 02:53:02;;;;;;;15.13;8.70;;;9.20;61.50;;;;;;6215366;23;20422;-81
2023/04/07 02:55:28;;;;;;;14.77;9.45;;;9.20;61.40;;;;;;6214978;23;20269;-81
2023/04/07 02:57:54;;;;;;;15.05;9.02;;;9.10;61.40;;;;;;6214721;23;20005;-83
2023/04/07 03:00:20;;;;;;;13.38;8.02;;;9.00;61.20;;;;;;6214946;23;20007;-81
2023/04/07 03:02:45;;;;;;;11.63;8.05;;;9.00;61.40;;;;;;6215045;23;20358;-81
2023/04/07 03:05:11;;;;;;;13.15;8.35;;;9.00;61.20;;;;;;6215353;23;20005;-81
2023/04/07 03:07:37;;;;;;;14.68;8.07;;;9.00;61.20;;;;;;6213220;23;20095;-79
2023/04/07 03:10:02;;;;;;;13.98;8.40;;;9.10;61.20;;;;;;6214846;23;20001;-80
2023/04/07 03:12:28;;;;;;;16.92;8.23;;;9.00;61.00;;;;;;6215171;23;20032;-81
2023/04/07 03:14:54;;;;;;;12.10;7.85;;;9.00;61.10;;;;;;6215284;23;20062;-81
2023/04/07 03:17:20;;;;;;;10.20;7.45;;;9.00;61.20;;;;;;6237031;23;20450;-81
2023/04/07 03:19:45;;;;;;;10.73;7.47;;;8.90;61.10;;;;;;6245036;23;20004;-81
2023/04/07 03:22:11;;;;;;;12.43;8.07;;;8.90;61.30;;;;;;6245255;23;20000;-81
2023/04/07 03:24:38;;;;;;;10.13;7.28;;;8.80;61.10;;;;;;6245490;23;20033;-81
2023/04/07 03:27:04;;;;;;;11.80;7.57;;;8.80;61.40;;;;;;6246023;23;20098;-81
2023/04/07 03:29:29;;;;;;;12.40;7.78;;;8.80;61.20;;;;;;6245467;23;20414;-82
2023/04/07 03:31:55;;;;;;;15.38;8.13;;;8.80;61.20;;;;;;6249724;23;20000;-80
2023/04/07 03:34:22;;;;;;;12.98;7.25;;;8.80;60.90;;;;;;6222742;23;20016;-81
2023/04/07 03:36:47;;;;;;;12.38;7.43;;;8.70;60.90;;;;;;6250274;23;20012;-81
2023/04/07 03:39:13;;;;;;;17.10;7.70;;;8.70;61.00;;;;;;6256210;23;20035;-81
2023/04/07 03:41:39;;;;;;;9.43;6.70;;;8.70;61.30;;;;;;6262073;23;20000;-80
2023/04/07 03:44:05;;;;;;;13.80;7.97;;;8.70;61.10;;;;;;6260405;23;19995;-81
2023/04/07 03:46:31;;;;;;;11.60;6.90;;;8.80;61.00;;;;;;6250023;23;20015;-80
2023/04/07 03:48:56;;;;;;;10.82;7.57;;;8.80;61.00;;;;;;6250174;23;20000;-81
2023/04/07 03:51:22;;;;;;;13.85;7.45;;;8.80;60.30;;;;;;6251816;23;20022;-81
2023/04/07 03:53:48;;;;;;;12.32;7.10;;;8.70;60.90;;;;;;6223606;23;20395;-80
2023/04/07 03:56:13;;;;;;;12.73;7.03;;;8.70;60.70;;;;;;6256437;23;20016;-80
2023/04/07 03:58:41;;;;;;;12.07;7.20;;;8.60;60.70;;;;;;6251092;23;20000;-80
2023/04/07 04:01:07;;;;;;;15.25;6.97;;;8.60;60.90;;;;;;6249292;23;20019;-79
2023/04/07 04:03:34;;;;;;;11.02;7.07;;;8.50;60.90;;;;;;6249224;23;19996;-81
2023/04/07 04:05:59;;;;;;;11.73;6.75;;;8.50;60.80;;;;;;6248729;23;20071;-81
2023/04/07 04:08:26;;;;;;;12.25;7.63;;;8.40;61.00;;;;;;6221710;23;20028;-80
2023/04/07 04:10:51;;;;;;;10.52;7.38;;;8.50;61.10;;;;;;6248378;23;20011;-80
2023/04/07 04:13:17;;;;;;;9.98;6.75;;;8.50;61.00;;;;;;6248314;23;20004;-81
2023/04/07 04:15:43;;;;;;;11.15;6.63;;;8.50;60.90;;;;;;6252271;23;20008;-79
2023/04/07 04:18:08;;;;;;;11.93;7.53;;;8.50;61.00;;;;;;6272267;23;20007;-79
2023/04/07 04:20:34;;;;;;;11.90;7.07;;;8.50;61.00;;;;;;6265467;23;20000;-81
2023/04/07 04:23:00;;;;;;;10.52;6.80;;;8.50;60.80;;;;;;6249388;23;20418;-81
2023/04/07 04:25:26;;;;;;;13.70;7.32;;;8.50;61.00;;;;;;6248722;23;20004;-80
2023/04/07 04:27:51;;;;;;;12.02;6.80;;;8.50;60.80;;;;;;6248296;23;20000;-81
2023/04/07 04:30:17;;;;;;;14.57;7.13;;;8.50;61.30;;;;;;6248731;23;20000;-81
2023/04/07 04:32:43;;;;;;;11.70;7.00;;;8.50;60.90;;;;;;6248487;23;20005;-81
2023/04/07 04:35:09;;;;;;;11.57;7.13;;;8.50;60.70;;;;;;6248233;23;20404;-82
2023/04/07 04:37:34;;;;;;;13.95;7.40;;;8.40;60.60;;;;;;6221240;23;20008;-80
2023/04/07 04:40:00;;;;;;;16.90;8.23;;;8.40;60.80;;;;;;6248581;23;20007;-81
2023/04/07 04:42:26;;;;;;;13.15;7.72;;;8.40;60.90;;;;;;6250010;23;20009;-82
2023/04/07 04:44:52;;;;;;;13.57;6.57;;;8.40;60.90;;;;;;6247308;23;20058;-80
2023/04/07 04:47:18;;;;;;;12.95;6.82;;;8.30;60.70;;;;;;6246619;23;20365;-82
2023/04/07 04:49:44;;;;;;;9.82;6.35;;;8.30;60.70;;;;;;6246764;23;20004;-82
2023/04/07 04:52:10;;;;;;;12.90;6.82;;;8.30;60.50;;;;;;6246672;23;20445;-81
2023/04/07 04:54:35;;;;;;;11.50;6.45;;;8.20;60.40;;;;;;6219608;23;20061;-80
2023/04/07 04:57:02;;;;;;;12.10;6.43;;;8.20;60.30;;;;;;6246638;23;20020;-82
2023/04/07 04:59:27;;;;;;;10.65;6.78;;;8.20;60.20;;;;;;6247127;23;20380;-81
2023/04/07 05:01:53;;;;;;;13.88;6.63;;;8.10;60.10;;;;;;6220122;23;20008;-80
2023/04/07 05:04:19;;;;;;;10.95;6.25;;;8.10;60.20;;;;;;6254050;23;20334;-81
2023/04/07 05:06:45;;;;;;;11.05;6.35;;;8.20;60.20;;;;;;6258215;23;20400;-80
2023/04/07 05:09:10;;;;;;;11.98;6.40;;;8.20;60.00;;;;;;6246828;23;20441;-82
2023/04/07 05:11:36;;;;;;;12.10;6.05;;;8.20;60.00;;;;;;6246705;23;20016;-80
2023/04/07 05:14:02;;;;;;;9.77;6.22;;;8.10;60.00;;;;;;6246329;23;19997;-78
2023/04/07 05:16:27;;;;;;;13.65;6.95;;;8.20;60.00;;;;;;6246275;23;20020;-79
2023/04/07 05:18:53;;;;;;;11.30;6.95;;;8.20;60.10;;;;;;6246732;23;20039;-81
2023/04/07 05:21:20;;;;;;;11.73;6.45;;;8.20;60.00;;;;;;6246203;23;20062;-81
2023/04/07 05:23:46;;;;;;;12.40;6.50;;;8.20;59.90;;;;;;6248257;23;20011;-81
2023/04/07 05:26:12;;;;;;;10.30;6.65;;;8.20;59.90;;;;;;6248533;23;20311;-80
2023/04/07 05:28:37;;;;;;;11.45;6.50;;;8.30;59.90;;;;;;6248051;23;20001;-80
2023/04/07 05:31:03;;;;;;;10.35;5.90;;;8.30;59.60;;;;;;6248172;23;20000;-82
2023/04/07 05:33:29;;;;;;;10.80;6.88;;;8.30;59.70;;;;;;6248940;23;20395;-81
2023/04/07 05:35:55;;;;;;;11.35;6.28;;;8.40;59.60;;;;;;6254783;23;20012;-82
2023/04/07 05:38:20;;;;;;;11.60;6.15;;;8.40;59.40;;;;;;6264450;23;19997;-81
2023/04/07 05:40:46;;;;;;;9.88;6.22;;;8.40;59.10;;;;;;6249003;23;20004;-81
2023/04/07 05:43:12;;;;;;;12.90;7.20;;;8.50;59.10;;;;;;6222004;23;20438;-76
2023/04/07 05:45:37;;;;;;;12.50;6.07;;;8.60;59.30;;;;;;6247834;23;20365;-80
2023/04/07 05:48:03;;;;;;;9.80;6.03;;;8.70;58.80;;;;;;6247604;23;20000;-81
2023/04/07 05:50:29;;;;;;;9.55;5.97;;;8.70;58.70;;;;;;6220756;23;20012;-81
2023/04/07 05:52:55;;;;;;;11.13;6.28;;;8.80;58.30;;;;;;6246883;23;20430;-80
2023/04/07 05:55:20;;;;;;;13.60;5.75;;;9.00;58.50;;;;;;6246766;23;20028;-87
2023/04/07 05:57:46;;;;;;;12.13;5.88;;;9.10;58.00;;;;;;6250476;23;20003;-83
2023/04/07 06:00:13;;;;;;;8.32;5.45;;;9.30;57.50;;;;;;6251733;23;20008;-82
2023/04/07 06:02:39;;;;;;;11.20;6.45;;;9.50;57.30;;;;;;6246970;23;20008;-82
2023/04/07 06:05:05;;;;;;;10.80;6.43;;;9.60;56.40;;;;;;6246055;23;20004;-80
2023/04/07 06:07:31;;;;;;;15.73;6.50;;;9.60;56.00;;;;;;6246250;23;20004;-81
2023/04/07 06:09:57;;;;;;;10.30;5.97;;;9.70;56.00;;;;;;6245727;23;20418;-82
2023/04/07 06:12:23;;;;;;;10.32;6.05;;;9.90;55.90;;;;;;6248663;23;20011;-80
2023/04/07 06:14:55;;;;;;;14.20;6.18;;;10.00;54.80;;;;;;6219722;23;20043;-81
2023/04/07 06:17:21;;;;;;;15.07;6.50;;;10.10;54.70;;;;;;6246347;23;20016;-84
2023/04/07 06:19:47;;;;;;;12.73;6.07;;;10.20;54.70;;;;;;6248566;23;20140;-82
2023/04/07 06:22:13;;;;;;;11.43;5.63;;;10.30;54.60;;;;;;6246531;23;20012;-83
2023/04/07 06:24:39;;;;;;;15.77;6.13;;;10.40;53.70;;;;;;6246709;23;20091;-83
2023/04/07 06:27:05;;;;;;;12.13;6.35;;;10.60;53.60;;;;;;6246142;23;20027;-82
2023/04/07 06:29:32;;;;;;;10.25;6.20;;;10.70;53.50;;;;;;6245727;23;20089;-83
2023/04/07 06:31:58;;;;;;;12.98;6.55;;;10.90;53.30;;;;;;6245630;23;20023;-82
2023/04/07 06:34:24;;;;;;;15.35;6.68;;;11.00;53.20;;;;;;6245990;23;20069;-83
2023/04/07 06:36:50;;;;;;;18.77;6.93;;;11.20;53.10;;;;;;6245649;23;20525;-82
2023/04/07 06:39:15;;;;;;;14.40;7.05;;;11.40;53.00;;;;;;6245771;23;20004;-82
2023/04/07 06:41:45;;;;;;;13.98;7.03;;;11.60;52.70;;;;;;6265074;23;20037;-82
2023/04/07 06:44:11;;;;;;;14.60;7.82;;;11.70;52.80;;;;;;6250943;23;20000;-81
2023/04/07 06:46:38;;;;;;;13.45;7.63;;;11.80;52.90;;;;;;6246041;23;20472;-82
2023/04/07 06:49:03;;;;;;;12.55;7.20;;;11.80;52.20;;;;;;6245021;23;19996;-73
2023/04/07 06:51:30;;;;;;;12.30;7.03;;;11.80;52.00;;;;;;6243939;23;20092;-71
2023/04/07 06:53:56;;;;;;;20.08;7.20;;;11.80;52.30;;;;;;6235928;23;20000;-74
2023/04/07 06:56:22;;;;;;;12.07;7.75;;;11.80;52.10;;;;;;6209300;23;20065;-73
2023/04/07 06:58:48;;;;;;;17.02;7.35;;;11.80;51.80;;;;;;6243449;23;20025;-71
2023/04/07 07:01:14;;;;;;;14.93;7.10;;;11.90;51.80;;;;;;6243938;23;20004;-74
2023/04/07 07:03:40;;;;;;;12.02;6.88;;;12.00;51.60;;;;;;6242320;23;20402;-72
2023/04/07 07:06:06;;;;;;;18.38;7.70;;;12.00;51.70;;;;;;6241643;23;20007;-74
2023/04/07 07:08:31;;;;;;;13.13;7.47;;;12.10;51.60;;;;;;6244039;23;19996;-75
2023/04/07 07:10:57;;;;;;;13.13;7.68;;;12.10;51.30;;;;;;6240265;23;20012;-75
2023/04/07 07:13:25;;;;;;;13.35;7.95;;;12.10;51.40;;;;;;6243673;23;20008;-79
2023/04/07 07:15:51;;;;;;;14.98;7.38;;;12.20;51.60;;;;;;6240894;23;20125;-75
2023/04/07 07:18:17;;;;;;;16.45;6.93;;;12.30;51.50;;;;;;6243700;23;20004;-75
2023/04/07 07:20:43;;;;;;;14.32;7.35;;;12.40;51.20;;;;;;6243740;23;20011;-73
2023/04/07 07:23:09;;;;;;;14.20;9.05;;;12.50;50.90;;;;;;6216295;23;20008;-74
2023/04/07 07:25:35;;;;;;;14.95;7.63;;;12.60;50.40;;;;;;6239367;23;20474;-74
2023/04/07 07:28:01;;;;;;;18.83;8.20;;;12.70;50.80;;;;;;6243936;23;20009;-74
2023/04/07 07:30:26;;;;;;;12.50;6.88;;;12.70;50.50;;;;;;6244808;23;20024;-74
2023/04/07 07:32:53;;;;;;;16.20;7.63;;;12.60;50.40;;;;;;6244983;23;20438;-74
2023/04/07 07:35:20;;;;;;;14.27;8.15;;;12.70;50.00;;;;;;6240312;23;20012;-75
2023/04/07 07:37:46;;;;;;;17.92;8.40;;;12.70;50.00;;;;;;6243830;23;20000;-74
2023/04/07 07:40:12;;;;;;;17.27;8.65;;;12.80;49.90;;;;;;6242887;23;20411;-74
2023/04/07 07:42:38;;;;;;;14.50;8.10;;;12.90;49.80;;;;;;6243862;23;20106;-74
2023/04/07 07:45:04;;;;;;;18.27;8.05;;;13.00;49.60;;;;;;6239413;23;20398;-73
2023/04/07 07:47:30;;;;;;;12.77;7.88;;;13.20;49.70;;;;;;6243836;23;20000;-74
2023/04/07 07:49:55;;;;;;;17.77;8.20;;;13.30;48.80;;;;;;6243840;23;20076;-74
2023/04/07 07:52:21;;;;;;;11.73;7.55;;;13.40;48.50;;;;;;6243236;23;20000;-75
2023/04/07 07:54:50;;;;;;;13.65;8.43;;;13.50;48.60;;;;;;6239105;23;20019;-76
2023/04/07 07:57:16;;;;;;;14.85;8.13;;;13.50;48.50;;;;;;6216810;23;20020;-74
2023/04/07 07:59:42;;;;;;;14.82;8.55;;;13.60;48.00;;;;;;6243564;23;19996;-75
2023/04/07 08:02:09;;;;;;;16.40;8.02;;;13.80;48.40;;;;;;6243959;23;20077;-77
2023/04/07 08:04:35;;;;;;;19.13;8.70;;;13.80;48.30;;;;;;6240322;23;20008;-74
2023/04/07 08:07:02;;;;;;;13.38;8.25;;;13.90;48.10;;;;;;6243765;23;20004;-74
2023/04/07 08:09:28;;;;;;;16.88;7.97;;;14.00;47.60;;;;;;6242741;23;20092;-73
2023/04/07 08:11:54;;;;;;;12.07;8.60;;;13.90;47.70;;;;;;6243355;23;20489;-74
2023/04/07 08:14:19;;;;;;;13.85;7.72;;;13.80;48.80;;;;;;6240485;23;20311;-76
2023/04/07 08:16:45;;;;;;;13.18;8.43;;;13.90;48.40;;;;;;6243701;23;20016;-75
2023/04/07 08:19:12;;;;;;;18.85;8.13;;;13.90;48.70;;;;;;6245748;23;20391;-76
2023/04/07 08:21:38;;;;;;;20.23;9.35;;;13.80;47.70;;;;;;6246133;23;20012;-77
2023/04/07 08:24:04;;;;;;;19.77;7.90;;;13.80;48.00;;;;;;6216046;23;20507;-76
2023/04/07 08:26:30;;;;;;;14.68;8.70;;;13.80;48.10;;;;;;6244781;23;20062;-76
2023/04/07 08:28:57;;;;;;;14.20;8.13;;;13.70;48.00;;;;;;6245893;23;20024;-78
2023/04/07 08:31:23;;;;;;;16.75;8.77;;;13.70;48.80;;;;;;6245801;23;20446;-76
2023/04/07 08:33:52;;;;;;;21.15;8.57;;;13.80;48.60;;;;;;6243862;23;20074;-79
2023/04/07 08:36:19;;;;;;;23.35;9.15;;;13.90;48.50;;;;;;6243932;23;20035;-78
2023/04/07 08:38:45;;;;;;;17.42;8.85;;;13.90;48.30;;;;;;6245137;23;20271;-78
2023/04/07 08:41:12;;;;;;;17.05;9.25;;;14.00;48.30;;;;;;6245806;23;20000;-76
2023/04/07 08:43:40;;;;;;;13.63;8.10;;;14.10;48.10;;;;;;6243715;23;20000;-77
2023/04/07 08:46:09;;;;;;;13.75;8.63;;;14.00;47.70;;;;;;6216560;23;20434;-79
2023/04/07 08:48:37;;;;;;;14.32;9.00;;;14.00;47.50;;;;;;6245834;23;20015;-78
2023/04/07 08:51:08;;;;;;;18.40;9.63;;;14.00;47.50;;;;;;6247761;23;20109;-77
2023/04/07 08:53:42;;;;;;;18.48;9.05;;;14.00;47.90;;;;;;6245204;23;20000;-78
2023/04/07 08:56:11;;;;;;;17.95;9.10;;;14.00;47.90;;;;;;6244843;23;20038;-80
2023/04/07 08:58:38;;;;;;;21.73;8.90;;;14.10;48.30;;;;;;6245883;23;20011;-79
2023/04/07 09:01:05;;;;;;;17.42;9.00;;;14.10;47.80;;;;;;6245607;23;20011;-78
2023/04/07 09:03:32;;;;;;;19.88;10.02;;;14.20;47.90;;;;;;6244731;23;20066;-75
2023/04/07 09:06:00;;;;;;;13.82;8.88;;;14.30;47.80;;;;;;6242823;23;20028;-77
2023/04/07 09:08:26;;;;;;;15.45;8.10;;;14.40;47.90;;;;;;6244816;23;20004;-77
2023/04/07 09:10:53;;;;;;;18.85;9.23;;;14.40;48.30;;;;;;6249745;23;20035;-78
2023/04/07 09:13:19;;;;;;;15.90;9.50;;;14.50;48.30;;;;;;6250687;23;19996;-78
2023/04/07 09:15:45;;;;;;;15.50;8.82;;;14.50;48.50;;;;;;6242180;23;20035;-77
2023/04/07 09:18:11;;;;;;;13.82;8.55;;;14.50;48.70;;;;;;6245740;23;20303;-78
2023/04/07 09:20:56;;;;;;;14.98;9.40;;;14.50;48.80;;;;;;6246309;23;20371;-78
2023/04/07 09:23:36;;;;;;;15.05;9.52;;;14.60;48.50;;;;;;6245079;23;20122;-78
2023/04/07 09:26:19;;;;;;;15.43;9.48;;;14.60;49.00;;;;;;6215773;23;20454;-77
2023/04/07 09:28:47;;;;;;;12.05;9.07;;;14.60;49.20;;;;;;6244595;23;20007;-77
2023/04/07 09:31:13;;;;;;;15.15;8.25;;;14.70;48.90;;;;;;6244921;23;20086;-78
2023/04/07 09:33:38;;;;;;;13.15;8.05;;;14.70;49.20;;;;;;6243428;23;20000;-77
2023/04/07 09:36:05;;;;;;;13.00;9.10;;;14.70;49.30;;;;;;6242772;23;20071;-78
2023/04/07 09:38:34;;;;;;;12.65;8.20;;;14.80;49.50;;;;;;6243987;23;20000;-77
2023/04/07 09:41:15;;;;;;;32.80;21.67;;;14.80;49.00;;;;;;6245050;23;20391;-77
2023/04/07 09:43:45;;;;;;;15.23;8.43;;;14.90;50.90;;;;;;6243807;23;20023;-77
2023/04/07 09:46:16;;;;;;;10.93;6.78;;;15.10;48.60;;;;;;6243122;23;20027;-78
2023/04/07 09:48:43;;;;;;;11.82;6.65;;;15.20;48.10;;;;;;6245202;23;20076;-78
2023/04/07 09:51:13;;;;;;;13.43;6.00;;;15.20;47.60;;;;;;6244334;23;20000;-78
2023/04/07 09:53:48;;;;;;;10.05;5.60;;;15.30;47.40;;;;;;6242710;23;20050;-76
2023/04/07 09:56:21;;;;;;;15.02;6.78;;;15.30;47.30;;;;;;6242897;23;20019;-75
2023/04/07 09:58:50;;;;;;;12.82;6.50;;;15.40;47.30;;;;;;6245033;23;19997;-79
2023/04/07 10:01:17;;;;;;;10.90;6.85;;;15.50;46.90;;;;;;6245093;23;20131;-73
2023/04/07 10:03:45;;;;;;;11.68;6.57;;;15.60;46.80;;;;;;6242917;23;20008;-73
2023/04/07 10:06:10;;;;;;;11.10;5.65;;;15.60;46.70;;;;;;6242174;23;20055;-73
2023/04/07 10:08:39;;;;;;;8.95;5.63;;;15.70;47.00;;;;;;6244200;23;20023;-72
2023/04/07 10:11:05;;;;;;;9.40;5.75;;;15.80;46.10;;;;;;6244487;23;20000;-73
2023/04/07 10:13:33;;;;;;;12.30;5.82;;;15.90;45.50;;;;;;6243562;23;20490;-76
2023/04/07 10:16:05;;;;;;;8.80;5.35;;;15.90;45.00;;;;;;6241600;23;20016;-76
2023/04/07 10:18:33;;;;;;;9.68;5.60;;;16.00;45.10;;;;;;6244473;23;20178;-77
2023/04/07 10:21:06;;;;;;;8.82;5.20;;;16.10;45.00;;;;;;6244287;23;20032;-75
2023/04/07 10:23:58;;;;;;;9.50;5.60;;;16.10;45.10;;;;;;6216058;23;20008;-73
2023/04/07 10:26:28;;;;;;;11.75;6.70;;;16.20;45.40;;;;;;6225907;23;20011;-75
2023/04/07 10:28:59;;;;;;;9.68;5.90;;;16.40;45.70;;;;;;6217584;23;20000;-74
2023/04/07 10:31:26;;;;;;;9.75;5.78;;;16.50;44.80;;;;;;6244667;23;20057;-74
2023/04/07 10:33:52;;;;;;;10.55;5.22;;;16.50;44.30;;;;;;6243150;23;20362;-76
2023/04/07 10:36:20;;;;;;;8.55;4.22;;;16.60;44.20;;;;;;6242295;23;20074;-75
2023/04/07 10:39:18;;;;;;;9.07;4.57;;;16.70;43.10;;;;;;6244267;23;20004;-73
2023/04/07 10:41:43;;;;;;;9.00;4.90;;;16.80;41.30;;;;;;6161990;23;20069;-74
2023/04/07 10:44:39;;;;;;;10.07;4.82;;;16.90;43.20;;;;;;6214622;23;20012;-73
2023/04/07 10:47:05;;;;;;;9.18;4.68;;;16.90;40.80;;;;;;6243944;23;20012;-75
2023/04/07 10:49:35;;;;;;;7.40;4.30;;;16.90;41.80;;;;;;6244540;23;20102;-74
2023/04/07 10:52:13;;;;;;;10.63;4.30;;;17.00;41.70;;;;;;6217213;23;20447;-72
2023/04/07 10:54:40;;;;;;;7.68;4.60;;;17.00;41.20;;;;;;6240776;23;20008;-73
2023/04/07 10:57:13;;;;;;;7.35;4.03;;;17.00;40.50;;;;;;6244272;23;20012;-72
2023/04/07 11:00:11;;;;;;;6.85;4.70;;;17.00;41.30;;;;;;6245428;23;20011;-73
2023/04/07 11:02:40;;;;;;;7.72;4.68;;;17.10;40.00;;;;;;6244521;23;20071;-73
2023/04/07 11:05:06;;;;;;;12.35;7.05;;;17.20;41.40;;;;;;6240514;23;20465;-73
2023/04/07 11:07:48;;;;;;;9.77;5.10;;;17.30;41.20;;;;;;6244114;23;20077;-72
2023/04/07 11:10:15;;;;;;;9.02;5.47;;;17.40;41.50;;;;;;6244063;23;20257;-72
2023/04/07 11:12:41;;;;;;;9.20;5.47;;;17.50;41.70;;;;;;6217007;23;20505;-74
2023/04/07 11:15:21;;;;;;;9.05;4.90;;;17.60;42.00;;;;;;6240192;23;20028;-74
2023/04/07 11:18:05;;;;;;;6.78;4.57;;;17.70;41.70;;;;;;6243783;23;20046;-75
2023/04/07 11:20:57;;;;;;;8.15;4.88;;;17.80;42.00;;;;;;6244073;23;20024;-75
2023/04/07 11:23:24;;;;;;;10.15;4.82;;;17.90;42.00;;;;;;6226223;23;20034;-74
2023/04/07 11:26:02;;;;;;;12.07;5.35;;;18.10;42.10;;;;;;6241722;23;20078;-73
2023/04/07 11:28:29;;;;;;;9.15;4.60;;;18.20;42.30;;;;;;6243915;23;20023;-72
2023/04/07 11:30:56;;;;;;;8.60;4.70;;;18.20;42.10;;;;;;6243513;23;20061;-74
2023/04/07 11:33:26;;;;;;;9.13;5.03;;;18.30;42.20;;;;;;6216459;23;20386;-73
2023/04/07 11:35:57;;;;;;;9.70;4.78;;;18.30;42.00;;;;;;6241310;23;20027;-74
2023/04/07 11:38:26;;;;;;;13.05;5.35;;;18.20;40.60;;;;;;6244305;23;20023;-75
2023/04/07 11:40:52;;;;;;;8.10;4.80;;;18.20;42.40;;;;;;6244740;23;20431;-73
2023/04/07 11:43:20;;;;;;;9.05;4.72;;;18.20;42.90;;;;;;6243656;23;20433;-74
2023/04/07 11:46:21;;;;;;;8.85;4.30;;;18.10;42.70;;;;;;6240474;23;20004;-72
2023/04/07 11:48:47;;;;;;;7.55;4.63;;;18.10;41.10;;;;;;6244019;23;20004;-73
2023/04/07 11:51:22;;;;;;;9.70;4.40;;;18.40;42.10;;;;;;6244121;23;20011;-74
2023/04/07 11:53:54;;;;;;;8.05;4.43;;;18.60;42.00;;;;;;6243453;23;20026;-73
2023/04/07 11:56:21;;;;;;;8.40;4.10;;;18.80;41.60;;;;;;6244040;23;20035;-75
2023/04/07 11:58:53;;;;;;;9.27;4.72;;;18.90;40.80;;;;;;6246210;23;20024;-77
2023/04/07 12:01:20;;;;;;;7.93;3.97;;;19.00;40.60;;;;;;6245767;23;20001;-79
2023/04/07 12:04:01;;;;;;;9.27;3.60;;;19.10;40.40;;;;;;6244232;23;20019;-78
2023/04/07 12:06:34;;;;;;;9.90;4.30;;;19.20;39.30;;;;;;6216835;23;20078;-68
2023/04/07 12:09:01;;;;;;;6.25;3.38;;;19.20;39.20;;;;;;6219902;23;20050;-67
2023/04/07 12:11:27;;;;;;;10.82;4.05;;;19.30;39.30;;;;;;6246416;23;20004;-68
2023/04/07 12:13:55;;;;;;;8.38;4.18;;;19.30;39.10;;;;;;6244429;23;20455;-67
2023/04/07 12:16:22;;;;;;;9.85;4.28;;;19.40;38.10;;;;;;6243796;23;20016;-66
2023/04/07 12:18:48;;;;;;;10.65;4.90;;;19.40;37.50;;;;;;6219038;23;20015;-68
2023/04/07 12:21:14;;;;;;;8.88;4.10;;;19.40;36.80;;;;;;6245770;23;20080;-67
2023/04/07 12:23:40;;;;;;;8.27;4.53;;;19.30;36.20;;;;;;6244376;23;20050;-67
2023/04/07 12:26:06;;;;;;;7.75;4.63;;;19.30;36.10;;;;;;6243560;23;20011;-68
2023/04/07 12:28:32;;;;;;;9.05;4.35;;;19.30;36.20;;;;;;6246477;23;20004;-67
2023/04/07 12:30:59;;;;;;;8.70;4.53;;;19.30;36.50;;;;;;6246516;23;20008;-71
2023/04/07 12:33:24;;;;;;;10.07;4.60;;;19.30;35.90;;;;;;6245496;23;20008;-68
2023/04/07 12:35:50;;;;;;;8.50;4.50;;;19.30;34.50;;;;;;6242792;23;20008;-68
2023/04/07 12:38:16;;;;;;;7.35;4.13;;;19.20;34.00;;;;;;6218675;23;20008;-68
2023/04/07 12:40:42;;;;;;;8.23;4.70;;;19.20;33.90;;;;;;6245906;23;20433;-70
2023/04/07 12:43:08;;;;;;;7.65;4.35;;;19.30;33.80;;;;;;6245552;23;20008;-68